Terminal Aerodrome Forecast
Issued by NWS Omaha/Valley, NE

Home | Current Version | Previous Version | Text Only | Print | Product List | Glossary On
Versions: 1 2 3 4 5 6 7 8 9 10 11 12 13 14 15 16 17 18 19 20 21 22 23 24 25 26 27 28 29 30 31 32 33 34 35 36 37 38 39 40 41 42 43 44 45 46
000
FTUS43 KOAX 231244 AAA
TAFOMA
TAF AMD
KOMA 231244Z 2313/2412 17009KT P6SM BKN007 OVC040
      TEMPO 2313/2315 2SM -DZ BR SCT007 OVC015
     FM231500 22006KT 2SM -DZ BR OVC015
      TEMPO 2315/2317 1SM -DZ BR OVC008
     FM231800 33014G22KT P6SM OVC040
      TEMPO 2318/2321 5SM -SHRA BKN015
     FM232100 33018G30KT P6SM OVC040
     FM240100 33020G32KT P6SM OVC020=

USA.gov is the U.S. government's official web portal to all federal, state and local government web resources and services.